createdAt,value
2023-05-27T00:01:52.818Z,5.47
2023-05-27T00:04:22.977Z,4.68
2023-05-27T00:06:51.691Z,5.45
2023-05-27T00:09:20.232Z,5.50
2023-05-27T00:11:48.874Z,4.63
2023-05-27T00:14:18.555Z,5.57
2023-05-27T00:16:47.870Z,5.07
2023-05-27T00:19:17.922Z,4.80
2023-05-27T00:21:47.866Z,4.88
2023-05-27T00:24:16.341Z,4.95
2023-05-27T00:26:44.859Z,4.93
2023-05-27T00:29:13.382Z,5.47
2023-05-27T00:31:41.865Z,5.13
2023-05-27T00:34:10.498Z,4.80
2023-05-27T00:36:39.035Z,5.32
2023-05-27T00:39:08.942Z,5.18
2023-05-27T00:41:37.815Z,4.80
2023-05-27T00:44:06.308Z,5.40
2023-05-27T00:46:34.868Z,4.93
2023-05-27T00:49:03.428Z,5.03
2023-05-27T00:51:32.252Z,4.93
2023-05-27T00:54:01.196Z,5.28
2023-05-27T00:56:31.104Z,5.30
2023-05-27T00:58:59.640Z,5.55
2023-05-27T01:01:29.615Z,4.75
2023-05-27T01:03:58.859Z,5.22
2023-05-27T01:06:31.537Z,5.60
2023-05-27T01:09:03.028Z,5.38
2023-05-27T01:11:35.157Z,5.22
2023-05-27T01:14:07.704Z,5.40
2023-05-27T01:16:38.138Z,5.65
2023-05-27T01:19:10.246Z,5.57
2023-05-27T01:21:40.392Z,5.97
2023-05-27T01:24:10.677Z,4.95
2023-05-27T01:26:39.185Z,5.53
2023-05-27T01:29:07.690Z,5.50
2023-05-27T01:31:39.268Z,5.72
2023-05-27T01:34:09.999Z,5.40
2023-05-27T01:36:41.138Z,6.15
2023-05-27T01:39:13.283Z,5.47
2023-05-27T01:41:42.567Z,5.80
2023-05-27T01:44:11.698Z,5.40
2023-05-27T01:46:40.354Z,5.68
2023-05-27T01:49:09.321Z,5.03
2023-05-27T01:51:38.666Z,5.20
2023-05-27T01:54:07.316Z,4.88
2023-05-27T01:56:37.903Z,6.20
2023-05-27T01:59:06.392Z,5.22
2023-05-27T02:01:35.460Z,4.93
2023-05-27T02:04:04.973Z,4.82
2023-05-27T02:06:34.456Z,4.97
2023-05-27T02:09:03.021Z,5.30
2023-05-27T02:11:31.705Z,5.30
2023-05-27T02:14:02.424Z,6.18
2023-05-27T02:16:31.571Z,5.47
2023-05-27T02:19:00.303Z,5.80
2023-05-27T02:21:28.784Z,5.28
2023-05-27T02:23:57.334Z,5.75
2023-05-27T02:26:26.146Z,5.18
2023-05-27T02:28:54.638Z,6.00
2023-05-27T02:31:24.819Z,5.63
2023-05-27T02:33:53.371Z,5.35
2023-05-27T02:36:23.271Z,5.28
2023-05-27T02:38:51.782Z,6.40
2023-05-27T02:41:20.436Z,6.05
2023-05-27T02:43:48.991Z,5.13
2023-05-27T02:46:17.541Z,6.05
2023-05-27T02:48:48.106Z,6.50
2023-05-27T02:51:16.594Z,5.53
2023-05-27T02:53:45.124Z,5.38
2023-05-27T02:56:13.610Z,6.15
2023-05-27T02:58:42.356Z,6.15
2023-05-27T03:01:10.963Z,6.40
2023-05-27T03:03:39.593Z,6.57
2023-05-27T03:06:09.904Z,6.30
2023-05-27T03:08:38.781Z,6.05
2023-05-27T03:11:07.354Z,6.93
2023-05-27T03:13:35.869Z,6.10
2023-05-27T03:16:04.344Z,5.90
2023-05-27T03:18:32.939Z,5.85
2023-05-27T03:21:02.249Z,6.30
2023-05-27T03:23:32.125Z,6.60
2023-05-27T03:26:00.760Z,5.72
2023-05-27T03:28:29.309Z,5.82
2023-05-27T03:30:57.890Z,6.05
2023-05-27T03:33:26.524Z,5.38
2023-05-27T03:35:56.828Z,6.97
2023-05-27T03:38:25.428Z,5.82
2023-05-27T03:40:55.459Z,6.30
2023-05-27T03:43:24.152Z,6.57
2023-05-27T03:45:53.117Z,6.18
2023-05-27T03:48:21.738Z,5.72
2023-05-27T03:50:50.273Z,5.90
2023-05-27T03:53:18.811Z,5.75
2023-05-27T03:55:47.296Z,5.88
2023-05-27T03:58:17.687Z,6.55
2023-05-27T04:00:46.377Z,6.72
2023-05-27T04:03:15.225Z,5.70
2023-05-27T04:05:43.836Z,5.90
2023-05-27T04:08:14.291Z,6.05
2023-05-27T04:10:42.956Z,6.32
2023-05-27T04:13:11.470Z,6.28
2023-05-27T04:15:41.378Z,6.10
2023-05-27T04:18:09.937Z,5.50
2023-05-27T04:20:40.679Z,5.63
2023-05-27T04:23:09.282Z,5.63
2023-05-27T04:25:38.346Z,6.15
2023-05-27T04:28:08.266Z,6.55
2023-05-27T04:30:37.088Z,6.40
2023-05-27T04:33:06.982Z,5.88
2023-05-27T04:35:35.666Z,6.65
2023-05-27T04:38:04.197Z,6.60
2023-05-27T04:40:35.286Z,6.43
2023-05-27T04:43:03.876Z,6.88
2023-05-27T04:45:32.412Z,6.47
2023-05-27T04:48:02.188Z,6.82
2023-05-27T04:50:32.310Z,7.10
2023-05-27T04:53:02.949Z,6.40
2023-05-27T04:55:33.762Z,6.57
2023-05-27T04:58:04.842Z,6.70
2023-05-27T05:00:40.093Z,6.38
2023-05-27T05:03:09.685Z,6.22
2023-05-27T05:05:41.461Z,7.05
2023-05-27T05:08:10.134Z,6.80
2023-05-27T05:10:40.148Z,7.18
2023-05-27T05:13:08.611Z,7.05
2023-05-27T05:15:37.883Z,6.80
2023-05-27T05:18:06.437Z,7.07
2023-05-27T05:20:35.002Z,6.43
2023-05-27T05:23:04.878Z,6.20
2023-05-27T05:25:36.686Z,6.60
2023-05-27T05:28:05.386Z,6.85
2023-05-27T05:30:34.016Z,6.85
2023-05-27T05:33:02.731Z,6.38
2023-05-27T05:35:31.214Z,6.75
2023-05-27T05:37:59.700Z,7.07
2023-05-27T05:40:29.580Z,7.20
2023-05-27T05:42:58.073Z,7.05
2023-05-27T05:45:26.615Z,7.95
2023-05-27T05:47:55.227Z,7.10
2023-05-27T05:50:24.019Z,6.65
2023-05-27T05:52:52.817Z,7.30
2023-05-27T05:55:21.659Z,6.90
2023-05-27T05:57:51.621Z,7.40
2023-05-27T06:00:20.336Z,7.28
2023-05-27T06:02:48.947Z,7.18
2023-05-27T06:05:17.471Z,6.72
2023-05-27T06:07:46.394Z,6.75
2023-05-27T06:10:15.029Z,7.22
2023-05-27T06:12:43.530Z,6.68
2023-05-27T06:15:13.819Z,6.80
2023-05-27T06:17:42.300Z,7.00
2023-05-27T06:20:11.377Z,7.47
2023-05-27T06:22:39.897Z,6.53
2023-05-27T06:25:08.998Z,7.55
2023-05-27T06:27:37.542Z,6.93
2023-05-27T06:30:06.551Z,6.28
2023-05-27T06:32:36.422Z,6.65
2023-05-27T06:35:05.125Z,7.28
2023-05-27T06:37:33.664Z,7.25
2023-05-27T06:40:02.343Z,6.55
2023-05-27T06:42:30.967Z,7.78
2023-05-27T06:44:59.503Z,6.55
2023-05-27T06:47:28.185Z,6.57
2023-05-27T06:49:58.068Z,6.82
2023-05-27T06:52:26.905Z,7.30
2023-05-27T06:54:55.462Z,7.47
2023-05-27T06:57:23.969Z,7.22
2023-05-27T06:59:52.459Z,6.90
2023-05-27T07:02:21.041Z,6.85
2023-05-27T07:04:49.666Z,7.15
2023-05-27T07:07:19.842Z,7.60
2023-05-27T07:09:48.299Z,6.82
2023-05-27T07:12:16.799Z,7.40
2023-05-27T07:14:45.328Z,7.18
2023-05-27T07:17:14.200Z,6.72
2023-05-27T07:19:42.673Z,6.90
2023-05-27T07:22:11.340Z,6.75
2023-05-27T07:24:41.542Z,6.57
2023-05-27T07:27:10.128Z,6.90
2023-05-27T07:29:38.709Z,6.45
2023-05-27T07:32:07.485Z,6.82
2023-05-27T07:34:36.021Z,7.25
2023-05-27T07:37:07.645Z,6.68
2023-05-27T07:39:36.205Z,7.05
2023-05-27T07:42:07.606Z,6.72
2023-05-27T07:44:36.460Z,6.40
2023-05-27T07:47:05.147Z,6.55
2023-05-27T07:49:33.656Z,7.00
2023-05-27T07:52:02.238Z,5.97
2023-05-27T07:54:33.282Z,6.60
2023-05-27T07:57:02.572Z,7.00
2023-05-27T07:59:33.331Z,6.45
2023-05-27T08:02:01.998Z,6.50
2023-05-27T08:04:30.941Z,11.65
2023-05-27T08:06:59.802Z,6.90
2023-05-27T08:09:28.341Z,6.70
2023-05-27T08:11:57.020Z,5.90
2023-05-27T08:14:25.925Z,6.63
2023-05-27T08:16:56.008Z,7.07
2023-05-27T08:19:24.566Z,7.07
2023-05-27T08:21:53.137Z,6.63
2023-05-27T08:24:22.831Z,6.07
2023-05-27T08:26:51.511Z,6.28
2023-05-27T08:29:20.688Z,7.25
2023-05-27T08:31:49.250Z,6.40
2023-05-27T08:34:19.196Z,6.78
2023-05-27T08:36:48.324Z,5.70
2023-05-27T08:39:16.972Z,6.63
2023-05-27T08:41:45.597Z,6.45
2023-05-27T08:46:46.137Z,6.65
2023-05-27T08:49:14.844Z,6.95
2023-05-27T08:51:44.829Z,6.50
2023-05-27T08:54:13.615Z,6.05
2023-05-27T08:56:42.827Z,6.93
2023-05-27T08:59:11.880Z,6.88
2023-05-27T09:01:41.216Z,5.35
2023-05-27T09:04:09.815Z,6.25
2023-05-27T09:06:38.720Z,6.68
2023-05-27T09:09:10.331Z,6.22
2023-05-27T09:11:41.690Z,5.32
2023-05-27T09:14:10.202Z,6.60
2023-05-27T09:16:45.020Z,6.28
2023-05-27T09:19:22.858Z,5.95
2023-05-27T09:21:54.217Z,5.72
2023-05-27T09:24:25.405Z,5.80
2023-05-27T09:26:54.219Z,5.40
2023-05-27T09:29:22.910Z,5.90
2023-05-27T09:31:51.564Z,5.50
2023-05-27T09:34:20.288Z,5.85
2023-05-27T09:36:49.716Z,5.50
2023-05-27T09:39:18.909Z,4.82
2023-05-27T09:41:54.077Z,6.20
2023-05-27T09:44:22.643Z,5.75
2023-05-27T09:46:53.848Z,5.53
2023-05-27T09:49:22.932Z,5.85
2023-05-27T09:51:51.593Z,5.22
2023-05-27T09:54:21.098Z,5.40
2023-05-27T09:56:50.090Z,5.20
2023-05-27T09:59:20.549Z,4.10
2023-05-27T10:01:49.441Z,5.25
2023-05-27T10:04:18.540Z,4.97
2023-05-27T10:06:47.999Z,5.07
2023-05-27T10:09:18.855Z,5.05
2023-05-27T10:11:47.603Z,5.72
2023-05-27T10:14:17.254Z,5.15
2023-05-27T10:16:56.216Z,5.40
2023-05-27T10:19:25.049Z,4.70
2023-05-27T10:21:54.936Z,5.13
2023-05-27T10:24:33.593Z,4.95
2023-05-27T10:27:03.577Z,5.82
2023-05-27T10:29:39.029Z,5.32
2023-05-27T10:32:09.015Z,5.50
2023-05-27T10:34:38.131Z,5.22
2023-05-27T10:37:08.229Z,4.97
2023-05-27T10:39:37.114Z,4.95
2023-05-27T10:42:06.731Z,4.70
2023-05-27T10:44:35.894Z,5.20
2023-05-27T10:47:05.048Z,4.78
2023-05-27T10:49:40.682Z,4.53
2023-05-27T10:52:12.376Z,4.57
2023-05-27T10:54:41.298Z,4.15
2023-05-27T10:57:10.447Z,5.25
2023-05-27T10:59:43.005Z,5.07
2023-05-27T11:02:11.665Z,4.25
2023-05-27T11:04:41.713Z,4.38
2023-05-27T11:07:10.187Z,4.57
2023-05-27T11:09:45.814Z,4.95
2023-05-27T11:12:18.554Z,4.18
2023-05-27T11:14:47.442Z,4.75
2023-05-27T11:17:16.277Z,4.88
2023-05-27T11:19:47.236Z,5.22
2023-05-27T11:22:17.289Z,4.50
2023-05-27T11:24:45.977Z,4.70
2023-05-27T11:27:16.167Z,4.60
2023-05-27T11:29:52.200Z,4.55
2023-05-27T11:32:21.594Z,4.35
2023-05-27T11:34:51.595Z,4.28
2023-05-27T11:37:20.159Z,4.28
2023-05-27T11:39:55.852Z,4.05
2023-05-27T11:42:25.504Z,4.25
2023-05-27T11:44:54.969Z,4.13
2023-05-27T11:47:24.150Z,4.22
2023-05-27T11:49:54.251Z,4.88
2023-05-27T11:52:22.850Z,4.03
2023-05-27T11:54:58.221Z,4.20
2023-05-27T11:57:27.381Z,4.40
2023-05-27T11:59:55.961Z,4.15
2023-05-27T12:02:24.553Z,3.90
2023-05-27T12:04:54.533Z,4.07
2023-05-27T12:07:23.058Z,4.68
2023-05-27T12:09:51.596Z,3.97
2023-05-27T12:12:22.214Z,4.25
2023-05-27T12:14:50.714Z,4.20
2023-05-27T12:17:19.498Z,4.57
2023-05-27T12:19:49.370Z,4.03
2023-05-27T12:22:19.530Z,4.22
2023-05-27T12:24:52.518Z,5.00
2023-05-27T12:27:22.332Z,4.03
2023-05-27T12:29:50.926Z,4.15
2023-05-27T12:32:19.497Z,4.45
2023-05-27T12:34:48.391Z,3.90
2023-05-27T12:37:17.389Z,3.92
2023-05-27T12:39:47.457Z,3.63
2023-05-27T12:42:16.533Z,4.15
2023-05-27T12:44:45.107Z,4.45
2023-05-27T12:47:13.724Z,3.85
2023-05-27T12:49:43.244Z,4.05
2023-05-27T12:52:11.888Z,4.07
2023-05-27T12:54:40.420Z,3.95
2023-05-27T12:57:10.891Z,4.47
2023-05-27T12:59:39.443Z,4.22
2023-05-27T13:02:08.758Z,4.45
2023-05-27T13:04:37.348Z,3.85
2023-05-27T13:07:06.118Z,4.07
2023-05-27T13:09:34.831Z,4.28
2023-05-27T13:12:03.375Z,4.03
2023-05-27T13:14:33.244Z,4.32
2023-05-27T13:17:03.200Z,3.97
2023-05-27T13:19:31.865Z,4.18
2023-05-27T13:22:00.528Z,4.13
2023-05-27T13:24:29.082Z,4.70
2023-05-27T13:26:57.609Z,4.53
2023-05-27T13:29:26.219Z,4.50
2023-05-27T13:31:56.810Z,4.10
2023-05-27T13:34:25.459Z,4.88
2023-05-27T13:36:53.954Z,4.18
2023-05-27T13:39:22.505Z,4.05
2023-05-27T13:41:51.208Z,4.10
2023-05-27T13:44:19.769Z,3.97
2023-05-27T13:46:48.999Z,4.47
2023-05-27T13:49:20.510Z,4.22
2023-05-27T13:51:49.450Z,4.65
2023-05-27T13:54:18.023Z,4.60
2023-05-27T13:56:46.622Z,4.05
2023-05-27T13:59:15.122Z,4.00
2023-05-27T14:01:43.680Z,3.85
2023-05-27T14:04:13.093Z,4.20
2023-05-27T14:06:43.145Z,4.20
2023-05-27T14:09:12.082Z,4.20
2023-05-27T14:11:41.256Z,4.10
2023-05-27T14:14:10.068Z,4.40
2023-05-27T14:16:38.731Z,4.47
2023-05-27T14:19:07.807Z,4.40
2023-05-27T14:21:36.427Z,3.90
2023-05-27T14:24:06.640Z,4.90
2023-05-27T14:26:36.557Z,4.57
2023-05-27T14:29:05.342Z,4.30
2023-05-27T14:31:34.082Z,4.38
2023-05-27T14:34:02.837Z,4.78
2023-05-27T14:36:31.367Z,4.88
2023-05-27T14:38:59.982Z,4.47
2023-05-27T14:41:30.253Z,4.80
2023-05-27T14:43:58.969Z,5.38
2023-05-27T14:46:27.759Z,4.90
2023-05-27T14:48:56.347Z,4.78
2023-05-27T14:51:25.066Z,4.72
2023-05-27T14:53:53.658Z,4.15
2023-05-27T14:56:22.807Z,4.57
2023-05-27T14:58:52.882Z,4.45
2023-05-27T15:01:21.564Z,4.85
2023-05-27T15:03:50.232Z,4.60
2023-05-27T15:06:18.997Z,4.25
2023-05-27T15:08:47.597Z,4.90
2023-05-27T15:11:16.561Z,4.88
2023-05-27T15:13:45.369Z,4.72
2023-05-27T15:16:15.275Z,4.63
2023-05-27T15:18:43.926Z,4.93
2023-05-27T15:21:12.657Z,4.95
2023-05-27T15:23:43.319Z,5.28
2023-05-27T15:26:11.902Z,5.18
2023-05-27T15:28:40.404Z,6.70
2023-05-27T15:31:10.335Z,7.90
2023-05-27T15:33:41.155Z,12.18
2023-05-27T15:36:10.596Z,18.10
2023-05-27T15:38:39.063Z,5.15
2023-05-27T15:41:07.830Z,9.02
2023-05-27T15:43:36.370Z,5.28
2023-05-27T15:46:05.836Z,4.95
2023-05-27T15:48:34.798Z,5.35
2023-05-27T15:51:04.758Z,5.53
2023-05-27T15:53:34.262Z,5.13
2023-05-27T15:56:02.820Z,4.72
2023-05-27T15:58:31.907Z,5.03
2023-05-27T16:01:00.769Z,5.43
2023-05-27T16:03:29.271Z,5.50
2023-05-27T16:05:57.709Z,5.20
2023-05-27T16:08:27.582Z,5.22
2023-05-27T16:10:56.664Z,5.35
2023-05-27T16:13:26.449Z,5.35
2023-05-27T16:15:56.955Z,4.68
2023-05-27T16:18:25.484Z,5.15
2023-05-27T16:20:54.235Z,5.13
2023-05-27T16:23:22.902Z,5.13
2023-05-27T16:25:54.308Z,5.18
2023-05-27T16:28:22.897Z,4.90
2023-05-27T16:30:51.844Z,4.95
2023-05-27T16:33:20.719Z,5.07
2023-05-27T16:35:49.250Z,5.75
2023-05-27T16:38:17.733Z,5.38
2023-05-27T16:40:46.233Z,5.45
2023-05-27T16:43:16.427Z,5.15
2023-05-27T16:45:45.027Z,5.15
2023-05-27T16:48:15.499Z,5.50
2023-05-27T16:50:45.508Z,5.38
2023-05-27T16:53:14.043Z,5.43
2023-05-27T16:55:42.951Z,4.90
2023-05-27T16:58:11.470Z,6.03
2023-05-27T17:00:41.437Z,5.78
2023-05-27T17:03:10.591Z,5.25
2023-05-27T17:05:39.304Z,5.22
2023-05-27T17:08:08.038Z,4.65
2023-05-27T17:10:36.653Z,5.03
2023-05-27T17:13:05.361Z,5.50
2023-05-27T17:15:34.000Z,5.25
2023-05-27T17:18:04.046Z,5.53
2023-05-27T17:20:32.777Z,4.93
2023-05-27T17:23:01.594Z,5.30
2023-05-27T17:25:30.161Z,4.95
2023-05-27T17:27:58.732Z,5.68
2023-05-27T17:30:27.208Z,5.13
2023-05-27T17:32:55.801Z,5.55
2023-05-27T17:35:25.754Z,6.05
2023-05-27T17:37:54.220Z,5.07
2023-05-27T17:40:22.734Z,4.97
2023-05-27T17:42:51.629Z,5.63
2023-05-27T17:45:20.130Z,5.45
2023-05-27T17:47:48.696Z,5.22
2023-05-27T17:50:17.278Z,5.88
2023-05-27T17:52:47.124Z,5.88
2023-05-27T17:55:15.700Z,5.35
2023-05-27T17:57:44.376Z,5.47
2023-05-27T18:00:13.445Z,5.47
2023-05-27T18:02:42.023Z,6.07
2023-05-27T18:05:11.184Z,5.53
2023-05-27T18:07:39.736Z,5.38
2023-05-27T18:10:10.693Z,5.72
2023-05-27T18:12:39.259Z,4.90
2023-05-27T18:15:08.487Z,5.05
2023-05-27T18:17:37.093Z,4.47
2023-05-27T18:20:05.884Z,5.10
2023-05-27T18:22:34.393Z,4.93
2023-05-27T18:25:02.931Z,4.80
2023-05-27T18:27:32.843Z,4.68
2023-05-27T18:30:01.347Z,4.80
2023-05-27T18:32:29.991Z,4.32
2023-05-27T18:35:01.323Z,4.63
2023-05-27T18:37:32.204Z,4.35
2023-05-27T18:40:00.670Z,4.40
2023-05-27T18:42:32.268Z,4.57
2023-05-27T18:45:02.416Z,4.93
2023-05-27T18:47:30.937Z,3.97
2023-05-27T18:49:59.452Z,4.38
2023-05-27T18:52:27.968Z,4.05
2023-05-27T18:54:56.640Z,4.57
2023-05-27T18:57:25.149Z,4.15
2023-05-27T18:59:53.836Z,4.00
2023-05-27T19:02:23.685Z,4.40
2023-05-27T19:04:53.694Z,3.78
2023-05-27T19:07:22.232Z,4.18
2023-05-27T19:09:53.283Z,4.65
2023-05-27T19:12:21.932Z,4.85
2023-05-27T19:14:50.876Z,4.38
2023-05-27T19:17:19.390Z,4.57
2023-05-27T19:19:48.223Z,4.20
2023-05-27T19:22:20.444Z,4.53
2023-05-27T19:24:49.130Z,4.60
2023-05-27T19:27:17.606Z,4.68
2023-05-27T19:29:46.104Z,4.15
2023-05-27T19:32:14.782Z,4.47
2023-05-27T19:34:43.274Z,5.03
2023-05-27T19:37:11.979Z,5.13
2023-05-27T19:39:42.164Z,4.32
2023-05-27T19:42:10.698Z,4.00
2023-05-27T19:44:39.178Z,4.50
2023-05-27T19:47:07.743Z,4.70
2023-05-27T19:49:36.726Z,3.92
2023-05-27T19:52:06.353Z,4.97
2023-05-27T19:54:36.023Z,4.78
2023-05-27T19:57:08.081Z,4.60
2023-05-27T19:59:36.703Z,4.07
2023-05-27T20:02:05.232Z,4.97
2023-05-27T20:04:33.711Z,4.95
2023-05-27T20:07:02.245Z,4.55
2023-05-27T20:09:30.977Z,4.70
2023-05-27T20:12:01.491Z,4.63
2023-05-27T20:14:31.363Z,4.30
2023-05-27T20:17:00.002Z,5.13
2023-05-27T20:19:28.534Z,4.90
2023-05-27T20:21:57.180Z,4.68
2023-05-27T20:24:25.663Z,4.70
2023-05-27T20:26:54.167Z,5.30
2023-05-27T20:29:22.628Z,4.72
2023-05-27T20:31:52.512Z,4.32
2023-05-27T20:34:21.366Z,5.20
2023-05-27T20:36:50.272Z,4.70
2023-05-27T20:39:18.851Z,5.05
2023-05-27T20:41:47.517Z,5.20
2023-05-27T20:44:15.996Z,5.20
2023-05-27T20:46:45.760Z,5.00
2023-05-27T20:49:15.916Z,4.85
2023-05-27T20:51:44.522Z,4.97
2023-05-27T20:54:13.061Z,5.20
2023-05-27T20:56:41.645Z,4.47
2023-05-27T20:59:10.199Z,4.65
2023-05-27T21:01:38.981Z,4.50
2023-05-27T21:04:09.015Z,4.90
2023-05-27T21:06:39.155Z,4.60
2023-05-27T21:09:07.850Z,5.10
2023-05-27T21:11:37.900Z,4.45
2023-05-27T21:14:06.559Z,4.45
2023-05-27T21:16:35.166Z,4.57
2023-05-27T21:19:03.676Z,5.05
2023-05-27T21:21:32.840Z,4.63
2023-05-27T21:24:03.642Z,4.65
2023-05-27T21:26:32.253Z,5.15
2023-05-27T21:29:00.727Z,4.88
2023-05-27T21:31:29.260Z,4.57
2023-05-27T21:33:58.022Z,4.97
2023-05-27T21:36:27.067Z,5.50
2023-05-27T21:38:55.712Z,5.05
2023-05-27T21:41:25.826Z,5.15
2023-05-27T21:43:54.489Z,5.35
2023-05-27T21:46:23.205Z,5.10
2023-05-27T21:48:52.050Z,5.22
2023-05-27T21:51:20.634Z,5.38
2023-05-27T21:53:49.162Z,4.63
2023-05-27T21:56:17.729Z,4.95
2023-05-27T21:58:47.702Z,5.03
2023-05-27T22:01:16.328Z,4.53
2023-05-27T22:03:45.215Z,4.95
2023-05-27T22:06:14.043Z,5.32
2023-05-27T22:08:42.545Z,5.57
2023-05-27T22:11:11.087Z,5.00
2023-05-27T22:13:40.013Z,5.70
2023-05-27T22:16:12.568Z,4.50
2023-05-27T22:18:41.234Z,5.22
2023-05-27T22:21:20.637Z,5.18
2023-05-27T22:23:57.149Z,5.10
2023-05-27T22:26:26.751Z,4.63
2023-05-27T22:28:56.488Z,4.90
2023-05-27T22:31:28.862Z,4.50
2023-05-27T22:33:57.548Z,5.55
2023-05-27T22:36:26.158Z,4.97
2023-05-27T22:38:54.650Z,5.10
2023-05-27T22:41:23.514Z,5.75
2023-05-27T22:43:52.158Z,5.60
2023-05-27T22:46:21.002Z,5.57
2023-05-27T22:48:51.048Z,5.90
2023-05-27T22:51:19.653Z,5.97
2023-05-27T22:53:48.186Z,5.10
2023-05-27T22:56:16.933Z,5.13
2023-05-27T22:58:45.462Z,5.82
2023-05-27T23:01:14.035Z,5.07
2023-05-27T23:03:42.841Z,4.80
2023-05-27T23:06:12.909Z,4.60
2023-05-27T23:08:41.479Z,5.28
2023-05-27T23:11:10.062Z,4.85
2023-05-27T23:13:38.640Z,4.72
2023-05-27T23:16:09.504Z,5.55
2023-05-27T23:18:38.281Z,5.07
2023-05-27T23:21:07.811Z,4.97
2023-05-27T23:23:38.014Z,5.47
2023-05-27T23:26:06.902Z,5.05
2023-05-27T23:28:35.986Z,5.45
2023-05-27T23:31:04.683Z,5.10
2023-05-27T23:33:33.405Z,5.07
2023-05-27T23:36:01.996Z,5.25
2023-05-27T23:38:30.472Z,5.95
2023-05-27T23:41:03.309Z,5.38
2023-05-27T23:43:31.755Z,6.20
2023-05-27T23:46:00.375Z,5.68
2023-05-27T23:48:29.157Z,6.13
2023-05-27T23:50:57.659Z,6.22
2023-05-27T23:53:26.160Z,5.55
2023-05-27T23:55:54.917Z,5.65
2023-05-27T23:58:25.390Z,6.03
